Aérodrome :
LOGIN :

S'inscrire | Disclaimer

   EN    FR    IT 

 










Légende :    VFR   VFR Marginal   IFR   IFR Intensif   IFR Très Intensif
Visi : 
Plafond : 
>= 8 km
>= 3000ft
5 à 8 km
1000 à 3000 ft
1500m à 5 km
500 à 1000 ft
800 à 1500m
200 à 500 ft
< 800m
< 200 ft
Symboles :   Orages  Brouillard  Fortes neiges  Fortes précipitations  Vent > 20 kt
SIGMETs :   Divers  Orages  Givrage  Turbulence  Onde Orograph.  Cendres Volcan.







- Altitude de l'aérodrome : 47 ft
- Code IATA : BMA


ESSB - Stockholm-Bromma

DERNIER METAR :
  • 211920Z 27005KT 9999 SCT012 BKN019CB 12/11 Q0994

METARs EXPIRÉS :
  • 211850Z 27006KT 9999 SCT011 BKN019CB 13/12 Q0994
  • 211820Z 23005KT 9999 FEW011 BKN019CB 13/12 Q0995
  • 211750Z 25005KT 9999 FEW009 SCT018CB BKN035 13/12 Q0995
  • 211720Z 22004KT 9999 FEW010 SCT055 BKN100 13/12 Q0995
  • 211650Z 25004KT 9999 -RA FEW033CB SCT047 OVC061 13/12 Q0995 REDZ
  • 211626Z 26007KT 9999 FEW012 BKN034CB OVC047 14/12 Q0996

TAF TAF ESSB
Valide du 21 à 18h jusqu'au 21 à 20h UTC


211730Z 2118/2120 32008KT 9999 SCT005 BKN015
PROB40 2118/2120 4000 SHRA BKN004 BKN030CB
Pas de NOTAMs connus pour ce terrain.



MET'MAP, la Météo Aéronautique d'un coup d'oeil ! - Copyright ORBIFLY Décembre 2007 - Disclaimer

ORBIFLY MET'MAP TEAM :

Programmation & Développement : Alexandra Zaïnal
Conception & Développement : Baudouin d'Aumeries
Co-Programmation & Développement : Marc-Olivier Méhu
Soutien technique & logistique : Manuel Goepfert

Contact : metmap@orbifly.com




SOURCES & CREDITS :

   NOAA